createdAt,value
2018-08-10T00:02:20.741Z,25.50
2018-08-10T00:05:17.783Z,25.50
2018-08-10T00:07:45.747Z,25.50
2018-08-10T00:10:14.461Z,25.40
2018-08-10T00:12:42.450Z,25.40
2018-08-10T00:15:11.602Z,25.20
2018-08-10T00:17:39.894Z,25.30
2018-08-10T00:20:10.939Z,25.30
2018-08-10T00:22:38.905Z,25.30
2018-08-10T00:25:09.532Z,25.20
2018-08-10T00:27:37.532Z,25.20
2018-08-10T00:30:08.825Z,25.20
2018-08-10T00:32:36.787Z,25.30
2018-08-10T00:35:05.826Z,25.50
2018-08-10T00:37:33.804Z,25.50
2018-08-10T00:40:01.762Z,25.50
2018-08-10T00:42:30.035Z,25.30
2018-08-10T00:44:57.999Z,25.20
2018-08-10T00:47:25.986Z,25.20
2018-08-10T00:49:54.037Z,25.40
2018-08-10T00:52:21.980Z,25.40
2018-08-10T00:54:49.974Z,25.40
2018-08-10T00:57:17.990Z,25.30
2018-08-10T00:59:45.952Z,25.40
2018-08-10T01:02:13.945Z,25.30
2018-08-10T01:04:41.924Z,25.40
2018-08-10T01:07:09.896Z,25.40
2018-08-10T01:09:37.839Z,25.30
2018-08-10T01:12:09.035Z,25.20
2018-08-10T01:14:37.056Z,25.20
2018-08-10T01:17:05.129Z,25.10
2018-08-10T01:19:33.099Z,25.10
2018-08-10T01:22:01.060Z,25.00
2018-08-10T01:24:29.016Z,24.90
2018-08-10T01:26:56.984Z,24.80
2018-08-10T01:29:25.604Z,24.70
2018-08-10T01:31:53.572Z,24.80
2018-08-10T01:34:21.535Z,25.00
2018-08-10T01:36:49.474Z,25.00
2018-08-10T01:39:17.459Z,24.90
2018-08-10T01:41:45.408Z,24.90
2018-08-10T01:44:13.611Z,25.10
2018-08-10T01:46:41.580Z,24.90
2018-08-10T01:49:09.561Z,24.90
2018-08-10T01:51:37.535Z,24.90
2018-08-10T01:54:05.487Z,24.90
2018-08-10T01:56:33.470Z,24.80
2018-08-10T01:59:01.443Z,24.70
2018-08-10T02:01:29.428Z,24.60
2018-08-10T02:03:57.382Z,24.60
2018-08-10T02:06:25.335Z,24.70
2018-08-10T02:08:56.247Z,24.90
2018-08-10T02:11:24.234Z,24.70
2018-08-10T02:13:52.234Z,24.70
2018-08-10T02:16:20.222Z,24.60
2018-08-10T02:18:48.287Z,24.40
2018-08-10T02:21:16.315Z,24.50
2018-08-10T02:23:44.269Z,24.50
2018-08-10T02:26:12.548Z,24.40
2018-08-10T02:28:40.519Z,24.20
2018-08-10T02:31:08.547Z,24.30
2018-08-10T02:33:36.528Z,24.40
2018-08-10T02:36:04.489Z,24.60
2018-08-10T02:38:32.503Z,24.50
2018-08-10T02:41:00.469Z,24.50
2018-08-10T02:43:28.428Z,24.60
2018-08-10T02:45:56.387Z,24.80
2018-08-10T02:48:24.363Z,24.80
2018-08-10T02:50:52.365Z,24.80
2018-08-10T02:53:20.319Z,24.70
2018-08-10T02:55:48.274Z,24.60
2018-08-10T02:58:16.267Z,24.50
2018-08-10T03:00:44.221Z,24.50
2018-08-10T03:03:12.510Z,24.50
2018-08-10T03:05:40.472Z,24.60
2018-08-10T03:08:08.436Z,24.60
2018-08-10T03:10:36.403Z,24.60
2018-08-10T03:13:04.363Z,24.50
2018-08-10T03:15:32.656Z,24.50
2018-08-10T03:18:00.609Z,24.40
2018-08-10T03:20:28.555Z,24.30
2018-08-10T03:22:56.523Z,24.20
2018-08-10T03:25:24.466Z,24.10
2018-08-10T03:27:52.460Z,24.10
2018-08-10T03:30:20.574Z,24.10
2018-08-10T03:32:48.526Z,24.10
2018-08-10T03:35:16.463Z,24.10
2018-08-10T03:37:44.428Z,24.20
2018-08-10T03:40:14.182Z,24.40
2018-08-10T03:42:42.180Z,24.40
2018-08-10T03:45:10.448Z,24.30
2018-08-10T03:47:39.029Z,24.30
2018-08-10T03:50:08.517Z,24.30
2018-08-10T03:52:36.463Z,24.40
2018-08-10T03:55:05.207Z,24.20
2018-08-10T03:57:33.135Z,24.10
2018-08-10T04:00:01.087Z,24.10
2018-08-10T04:02:29.066Z,24.00
2018-08-10T04:04:57.068Z,24.00
2018-08-10T04:07:25.033Z,24.10
2018-08-10T04:09:52.992Z,24.00
2018-08-10T04:12:20.945Z,24.10
2018-08-10T04:14:48.911Z,24.10
2018-08-10T04:17:21.524Z,24.20
2018-08-10T04:19:49.484Z,24.30
2018-08-10T04:22:17.463Z,24.30
2018-08-10T04:24:45.414Z,24.50
2018-08-10T04:27:13.374Z,24.70
2018-08-10T04:29:41.708Z,24.50
2018-08-10T04:32:09.751Z,24.30
2018-08-10T04:34:37.715Z,24.10
2018-08-10T04:37:05.885Z,24.00
2018-08-10T04:39:33.856Z,23.90
2018-08-10T04:42:01.827Z,23.90
2018-08-10T04:44:29.788Z,23.70
2018-08-10T04:46:57.821Z,23.80
2018-08-10T04:49:26.036Z,23.80
2018-08-10T04:51:54.042Z,23.80
2018-08-10T04:54:22.132Z,23.80
2018-08-10T04:56:50.121Z,23.70
2018-08-10T04:59:18.163Z,23.60
2018-08-10T05:01:46.146Z,23.50
2018-08-10T05:04:14.268Z,23.50
2018-08-10T05:06:42.240Z,23.50
2018-08-10T05:09:12.172Z,23.40
2018-08-10T05:11:40.143Z,23.40
2018-08-10T05:14:08.435Z,23.30
2018-08-10T05:16:36.493Z,23.40
2018-08-10T05:19:04.477Z,23.30
2018-08-10T05:21:32.464Z,23.30
2018-08-10T05:24:00.439Z,23.30
2018-08-10T05:26:28.391Z,23.10
2018-08-10T05:28:56.384Z,23.20
2018-08-10T05:31:24.358Z,23.10
2018-08-10T05:33:52.347Z,23.20
2018-08-10T05:36:20.332Z,23.20
2018-08-10T05:38:48.387Z,23.00
2018-08-10T05:41:16.374Z,22.90
2018-08-10T05:43:44.346Z,22.90
2018-08-10T05:46:12.394Z,22.80
2018-08-10T05:48:41.511Z,22.80
2018-08-10T05:51:11.753Z,22.90
2018-08-10T05:53:40.029Z,22.80
2018-08-10T05:56:07.985Z,22.70
2018-08-10T05:58:36.011Z,22.80
2018-08-10T06:01:04.221Z,22.90
2018-08-10T06:03:32.222Z,23.00
2018-08-10T06:06:00.135Z,23.00
2018-08-10T06:08:28.115Z,23.00
2018-08-10T06:10:56.077Z,22.90
2018-08-10T06:13:24.022Z,22.80
2018-08-10T06:15:51.998Z,22.80
2018-08-10T06:18:19.955Z,22.90
2018-08-10T06:20:47.936Z,22.90
2018-08-10T06:23:15.920Z,22.80
2018-08-10T06:25:43.884Z,22.80
2018-08-10T06:28:11.960Z,22.80
2018-08-10T06:30:39.859Z,22.70
2018-08-10T06:33:07.834Z,22.80
2018-08-10T06:35:35.816Z,22.80
2018-08-10T06:38:03.760Z,22.60
2018-08-10T06:40:31.819Z,22.50
2018-08-10T06:42:59.758Z,22.40
2018-08-10T06:45:28.428Z,22.60
2018-08-10T06:47:56.453Z,22.60
2018-08-10T06:50:24.419Z,22.50
2018-08-10T06:52:52.476Z,22.40
2018-08-10T06:55:20.436Z,22.40
2018-08-10T06:57:48.414Z,22.40
2018-08-10T07:00:16.396Z,22.40
2018-08-10T07:02:44.334Z,22.40
2018-08-10T07:05:12.332Z,22.30
2018-08-10T07:07:40.419Z,22.40
2018-08-10T07:10:08.628Z,22.40
2018-08-10T07:12:36.573Z,22.30
2018-08-10T07:15:04.616Z,22.20
2018-08-10T07:17:32.562Z,22.30
2018-08-10T07:20:00.555Z,22.30
2018-08-10T07:22:28.509Z,22.30
2018-08-10T07:24:56.496Z,22.30
2018-08-10T07:27:24.486Z,22.30
2018-08-10T07:29:52.489Z,22.40
2018-08-10T07:32:20.452Z,22.40
2018-08-10T07:34:48.414Z,22.10
2018-08-10T07:37:16.399Z,22.00
2018-08-10T07:39:44.494Z,22.10
2018-08-10T07:42:12.580Z,22.20
2018-08-10T07:44:40.557Z,22.40
2018-08-10T07:47:08.556Z,22.50
2018-08-10T07:49:36.515Z,22.70
2018-08-10T07:52:04.507Z,22.70
2018-08-10T07:54:32.447Z,22.60
2018-08-10T07:57:00.410Z,22.60
2018-08-10T07:59:28.367Z,22.70
2018-08-10T08:01:56.356Z,22.70
2018-08-10T08:04:24.318Z,22.60
2018-08-10T08:06:52.435Z,22.60
2018-08-10T08:09:20.333Z,22.60
2018-08-10T08:11:48.337Z,22.60
2018-08-10T08:14:16.291Z,22.60
2018-08-10T08:16:44.295Z,22.70
2018-08-10T08:19:12.306Z,22.70
2018-08-10T08:21:47.520Z,22.60
2018-08-10T08:24:15.507Z,22.60
2018-08-10T08:26:43.513Z,22.60
2018-08-10T08:29:11.510Z,22.70
2018-08-10T08:31:39.471Z,22.70
2018-08-10T08:34:07.988Z,22.70
2018-08-10T08:36:36.342Z,22.70
2018-08-10T08:41:12.754Z,22.80
2018-08-10T08:46:04.191Z,22.90
2018-08-10T08:48:33.783Z,22.70
2018-08-10T08:51:03.602Z,22.70
2018-08-10T08:53:31.603Z,22.80
2018-08-10T08:56:02.006Z,22.90
2018-08-10T08:58:30.488Z,22.90
2018-08-10T09:00:58.450Z,22.90
2018-08-10T09:03:38.512Z,23.00
2018-08-10T09:06:06.955Z,23.00
2018-08-10T09:08:35.138Z,23.10
2018-08-10T09:11:04.458Z,23.10
2018-08-10T09:13:44.784Z,23.10
2018-08-10T09:16:12.864Z,23.10
2018-08-10T09:18:40.865Z,23.10
2018-08-10T09:21:08.875Z,23.00
2018-08-10T09:23:36.845Z,23.10
2018-08-10T09:26:04.839Z,23.10
2018-08-10T09:28:32.839Z,23.10
2018-08-10T09:31:04.037Z,23.10
2018-08-10T09:33:32.061Z,23.10
2018-08-10T09:36:00.055Z,23.20
2018-08-10T09:38:28.071Z,23.20
2018-08-10T09:40:55.978Z,23.20
2018-08-10T09:43:23.957Z,23.20
2018-08-10T09:45:51.959Z,23.20
2018-08-10T09:48:20.047Z,23.20
2018-08-10T09:50:48.011Z,23.30
2018-08-10T09:53:16.118Z,23.30
2018-08-10T09:55:45.083Z,23.30
2018-08-10T09:58:18.844Z,23.20
2018-08-10T10:00:52.513Z,23.20
2018-08-10T10:03:21.910Z,23.20
2018-08-10T10:05:50.978Z,23.20
2018-08-10T10:08:20.316Z,23.30
2018-08-10T10:10:48.313Z,23.30
2018-08-10T10:13:16.540Z,23.20
2018-08-10T10:15:44.636Z,23.30
2018-08-10T10:18:13.675Z,23.30
2018-08-10T10:20:42.483Z,23.30
2018-08-10T10:23:10.452Z,23.40
2018-08-10T10:25:38.578Z,23.50
2018-08-10T10:28:07.075Z,23.60
2018-08-10T10:30:35.132Z,23.60
2018-08-10T10:33:03.140Z,23.70
2018-08-10T10:35:31.278Z,23.80
2018-08-10T10:37:59.368Z,23.90
2018-08-10T10:40:27.340Z,23.80
2018-08-10T10:42:55.347Z,23.70
2018-08-10T10:45:23.304Z,23.60
2018-08-10T10:47:51.330Z,23.50
2018-08-10T10:50:19.668Z,23.50
2018-08-10T10:52:47.716Z,23.50
2018-08-10T10:55:15.890Z,23.60
2018-08-10T10:57:44.201Z,23.50
2018-08-10T11:00:19.163Z,23.40
2018-08-10T11:02:47.628Z,23.50
2018-08-10T11:05:15.580Z,23.60
2018-08-10T11:07:43.648Z,23.60
2018-08-10T11:10:12.976Z,23.60
2018-08-10T11:12:40.999Z,23.60
2018-08-10T11:15:09.916Z,23.70
2018-08-10T11:17:41.876Z,23.80
2018-08-10T11:20:11.003Z,23.80
2018-08-10T11:22:39.899Z,23.80
2018-08-10T11:25:08.834Z,23.80
2018-08-10T11:27:36.796Z,23.80
2018-08-10T11:30:06.271Z,23.90
2018-08-10T11:32:35.187Z,23.90
2018-08-10T11:35:03.199Z,24.00
2018-08-10T11:37:31.187Z,24.00
2018-08-10T11:39:59.156Z,24.10
2018-08-10T11:42:27.165Z,24.00
2018-08-10T11:44:55.210Z,24.10
2018-08-10T11:47:23.176Z,24.00
2018-08-10T11:49:51.165Z,24.10
2018-08-10T11:52:19.207Z,24.20
2018-08-10T11:54:47.229Z,24.20
2018-08-10T11:57:15.297Z,24.30
2018-08-10T11:59:43.272Z,24.30
2018-08-10T12:02:11.256Z,24.40
2018-08-10T12:04:39.311Z,24.50
2018-08-10T12:07:07.288Z,24.50
2018-08-10T12:09:35.243Z,24.50
2018-08-10T12:12:03.249Z,24.30
2018-08-10T12:14:31.573Z,24.30
2018-08-10T12:16:59.596Z,24.20
2018-08-10T12:19:27.652Z,24.20
2018-08-10T12:21:55.619Z,24.20
2018-08-10T12:24:23.690Z,24.10
2018-08-10T12:26:52.918Z,24.10
2018-08-10T12:29:21.609Z,24.00
2018-08-10T12:31:49.728Z,23.90
2018-08-10T12:34:18.083Z,23.90
2018-08-10T12:36:46.225Z,24.00
2018-08-10T12:39:14.584Z,24.10
2018-08-10T12:41:42.639Z,24.10
2018-08-10T12:44:11.106Z,24.20
2018-08-10T12:46:39.156Z,24.30
2018-08-10T12:49:07.198Z,24.40
2018-08-10T12:51:35.273Z,24.50
2018-08-10T12:54:03.211Z,24.50
2018-08-10T12:56:31.210Z,24.50
2018-08-10T12:58:59.167Z,24.60
2018-08-10T13:01:27.164Z,24.60
2018-08-10T13:03:55.131Z,24.60
2018-08-10T13:06:23.193Z,24.60
2018-08-10T13:08:51.199Z,24.70
2018-08-10T13:11:19.144Z,24.70
2018-08-10T13:13:47.128Z,24.60
2018-08-10T13:16:15.128Z,24.60
2018-08-10T13:18:43.170Z,24.50
2018-08-10T13:21:11.121Z,24.60
2018-08-10T13:23:39.105Z,24.60
2018-08-10T13:26:07.498Z,24.60
2018-08-10T13:28:35.447Z,24.70
2018-08-10T13:31:03.642Z,24.80
2018-08-10T13:33:31.624Z,24.90
2018-08-10T13:35:59.588Z,24.90
2018-08-10T13:38:27.545Z,24.80
2018-08-10T13:40:55.655Z,24.80
2018-08-10T13:43:23.600Z,24.80
2018-08-10T13:45:51.607Z,24.80
2018-08-10T13:48:19.622Z,24.80
2018-08-10T13:50:48.083Z,24.80
2018-08-10T13:53:16.373Z,24.90
2018-08-10T13:55:44.538Z,25.00
2018-08-10T13:58:12.803Z,24.90
2018-08-10T14:00:40.924Z,24.90
2018-08-10T14:03:09.054Z,24.90
2018-08-10T14:05:40.617Z,24.90
2018-08-10T14:08:08.611Z,24.90
2018-08-10T14:10:36.568Z,24.90
2018-08-10T14:13:04.597Z,24.90
2018-08-10T14:15:32.582Z,24.90
2018-08-10T14:18:00.639Z,24.90
2018-08-10T14:20:28.594Z,24.90
2018-08-10T14:22:56.575Z,24.90
2018-08-10T14:25:24.587Z,24.90
2018-08-10T14:27:52.721Z,24.90
2018-08-10T14:30:20.691Z,25.00
2018-08-10T14:32:48.722Z,25.00
2018-08-10T14:35:17.277Z,25.00
2018-08-10T14:37:45.281Z,25.10
2018-08-10T14:40:13.900Z,25.00
2018-08-10T14:42:41.905Z,25.00
2018-08-10T14:45:12.774Z,25.10
2018-08-10T14:47:40.841Z,25.00
2018-08-10T14:50:10.972Z,24.90
2018-08-10T14:52:38.972Z,24.90
2018-08-10T14:55:09.109Z,24.90
2018-08-10T14:57:37.298Z,24.90
2018-08-10T15:00:08.603Z,24.90
2018-08-10T15:02:36.592Z,24.90
2018-08-10T15:05:05.130Z,24.70
2018-08-10T15:07:33.111Z,24.60
2018-08-10T15:10:01.133Z,24.60
2018-08-10T15:12:29.274Z,24.50
2018-08-10T15:14:57.104Z,24.60
2018-08-10T15:17:25.073Z,24.60
2018-08-10T15:19:53.176Z,24.60
2018-08-10T15:22:21.110Z,24.60
2018-08-10T15:24:49.087Z,24.60
2018-08-10T15:27:17.084Z,24.60
2018-08-10T15:29:45.449Z,24.60
2018-08-10T15:32:13.486Z,24.60
2018-08-10T15:34:41.544Z,24.50
2018-08-10T15:37:09.555Z,24.50
2018-08-10T15:39:37.528Z,24.60
2018-08-10T15:42:05.593Z,24.60
2018-08-10T15:44:33.571Z,24.60
2018-08-10T15:47:01.520Z,24.60
2018-08-10T15:49:29.510Z,24.70
2018-08-10T15:51:57.786Z,24.60
2018-08-10T15:54:25.784Z,24.60
2018-08-10T15:56:53.830Z,24.70
2018-08-10T15:59:21.900Z,24.60
2018-08-10T16:01:49.934Z,24.60
2018-08-10T16:04:18.262Z,24.60
2018-08-10T16:06:46.224Z,24.60
2018-08-10T16:09:14.200Z,24.60
2018-08-10T16:11:42.172Z,24.70
2018-08-10T16:14:11.054Z,24.70
2018-08-10T16:16:39.020Z,24.60
2018-08-10T16:19:07.151Z,24.70
2018-08-10T16:21:35.225Z,24.70
2018-08-10T16:24:03.222Z,24.70
2018-08-10T16:26:31.198Z,24.60
2018-08-10T16:28:59.188Z,24.60
2018-08-10T16:31:27.173Z,24.80
2018-08-10T16:33:55.184Z,24.80
2018-08-10T16:36:23.141Z,24.80
2018-08-10T16:38:51.114Z,24.90
2018-08-10T16:41:19.091Z,25.00
2018-08-10T16:43:47.287Z,25.10
2018-08-10T16:46:15.263Z,25.10
2018-08-10T16:48:43.240Z,25.20
2018-08-10T16:51:11.589Z,25.20
2018-08-10T16:53:39.574Z,25.30
2018-08-10T16:56:07.557Z,25.30
2018-08-10T16:58:35.523Z,25.30
2018-08-10T17:01:03.695Z,25.30
2018-08-10T17:03:31.679Z,25.40
2018-08-10T17:06:00.585Z,25.50
2018-08-10T17:08:31.625Z,25.50
2018-08-10T17:10:59.616Z,25.60
2018-08-10T17:13:27.947Z,25.60
2018-08-10T17:15:55.952Z,25.60
2018-08-10T17:18:23.911Z,25.50
2018-08-10T17:20:51.884Z,25.50
2018-08-10T17:23:19.856Z,25.50
2018-08-10T17:25:48.222Z,25.50
2018-08-10T17:28:16.181Z,25.50
2018-08-10T17:30:44.148Z,25.50
2018-08-10T17:33:12.173Z,25.40
2018-08-10T17:35:40.156Z,25.80
2018-08-10T17:38:08.118Z,26.20
2018-08-10T17:40:36.105Z,26.50
2018-08-10T17:43:04.127Z,27.20
2018-08-10T17:45:32.101Z,27.60
2018-08-10T17:48:00.264Z,27.80
2018-08-10T17:50:28.240Z,27.40
2018-08-10T17:52:56.264Z,26.90
2018-08-10T17:55:24.484Z,26.60
2018-08-10T17:57:52.466Z,26.40
2018-08-10T18:00:21.816Z,26.20
2018-08-10T18:02:50.536Z,26.10
2018-08-10T18:05:18.909Z,25.90
2018-08-10T18:07:46.946Z,25.60
2018-08-10T18:10:15.582Z,25.50
2018-08-10T18:12:44.355Z,25.40
2018-08-10T18:15:13.738Z,25.30
2018-08-10T18:17:42.252Z,25.30
2018-08-10T18:20:14.584Z,25.30
2018-08-10T18:22:43.708Z,25.20
2018-08-10T18:25:12.779Z,25.10
2018-08-10T18:27:41.512Z,25.00
2018-08-10T18:30:16.346Z,24.90
2018-08-10T18:32:44.601Z,24.90
2018-08-10T18:35:12.562Z,24.80
2018-08-10T18:37:42.132Z,24.70
2018-08-10T18:40:11.876Z,24.80
2018-08-10T18:42:40.662Z,24.80
2018-08-10T18:45:09.524Z,24.80
2018-08-10T18:47:38.208Z,24.80
2018-08-10T18:50:06.541Z,24.70
2018-08-10T18:52:34.909Z,24.70
2018-08-10T18:55:02.904Z,24.70
2018-08-10T18:57:30.858Z,24.60
2018-08-10T18:59:58.905Z,24.50
2018-08-10T19:02:26.934Z,24.40
2018-08-10T19:04:54.866Z,24.40
2018-08-10T19:07:22.809Z,24.30
2018-08-10T19:09:50.806Z,24.20
2018-08-10T19:12:18.774Z,24.20
2018-08-10T19:14:46.731Z,24.30
2018-08-10T19:17:14.704Z,24.10
2018-08-10T19:19:42.647Z,24.10
2018-08-10T19:22:10.625Z,24.10
2018-08-10T19:24:38.572Z,24.00
2018-08-10T19:27:06.618Z,24.00
2018-08-10T19:29:34.544Z,24.00
2018-08-10T19:32:02.504Z,24.00
2018-08-10T19:34:30.583Z,23.90
2018-08-10T19:36:58.538Z,23.90
2018-08-10T19:39:26.483Z,23.70
2018-08-10T19:41:54.452Z,23.70
2018-08-10T19:44:22.479Z,23.70
2018-08-10T19:46:50.553Z,23.60
2018-08-10T19:49:18.445Z,23.60
2018-08-10T19:51:46.627Z,23.50
2018-08-10T19:54:14.763Z,23.50
2018-08-10T19:56:42.907Z,23.50
2018-08-10T19:59:11.091Z,23.50
2018-08-10T20:01:39.073Z,23.50
2018-08-10T20:04:07.049Z,23.50
2018-08-10T20:06:35.187Z,23.50
2018-08-10T20:09:04.718Z,23.40
2018-08-10T20:11:32.673Z,23.40
2018-08-10T20:14:00.689Z,23.30
2018-08-10T20:16:28.667Z,23.30
2018-08-10T20:18:56.612Z,23.30
2018-08-10T20:21:24.586Z,23.20
2018-08-10T20:23:52.857Z,23.20
2018-08-10T20:26:21.709Z,23.30
2018-08-10T20:28:49.680Z,23.30
2018-08-10T20:31:17.983Z,23.20
2018-08-10T20:33:45.950Z,23.20
2018-08-10T20:36:13.910Z,23.10
2018-08-10T20:38:41.907Z,23.20
2018-08-10T20:41:09.907Z,23.10
2018-08-10T20:43:37.878Z,23.10
2018-08-10T20:46:05.844Z,23.00
2018-08-10T20:48:33.807Z,23.00
2018-08-10T20:51:01.853Z,22.90
2018-08-10T20:53:29.824Z,22.90
2018-08-10T20:55:57.998Z,22.90
2018-08-10T20:58:25.956Z,22.90
2018-08-10T21:00:53.916Z,22.90
2018-08-10T21:03:22.311Z,22.90
2018-08-10T21:05:50.267Z,22.90
2018-08-10T21:08:18.275Z,22.80
2018-08-10T21:10:46.537Z,22.80
2018-08-10T21:13:14.494Z,22.70
2018-08-10T21:15:42.478Z,22.70
2018-08-10T21:18:10.438Z,22.70
2018-08-10T21:20:38.385Z,22.60
2018-08-10T21:23:06.398Z,22.60
2018-08-10T21:25:34.358Z,22.60
2018-08-10T21:28:02.326Z,22.60
2018-08-10T21:30:30.438Z,22.50
2018-08-10T21:32:58.376Z,22.50
2018-08-10T21:35:26.323Z,22.50
2018-08-10T21:37:54.319Z,22.50
2018-08-10T21:40:22.270Z,22.40
2018-08-10T21:42:50.229Z,22.50
2018-08-10T21:45:18.259Z,22.50
2018-08-10T21:47:46.247Z,22.40
2018-08-10T21:50:14.883Z,22.40
2018-08-10T21:52:43.909Z,22.30
2018-08-10T21:55:12.212Z,22.30
2018-08-10T21:57:40.411Z,22.40
2018-08-10T22:00:15.889Z,22.40
2018-08-10T22:02:43.844Z,22.30
2018-08-10T22:05:11.798Z,22.30
2018-08-10T22:07:39.757Z,22.20
2018-08-10T22:10:07.723Z,22.20
2018-08-10T22:12:39.939Z,22.10
2018-08-10T22:15:13.346Z,22.00
2018-08-10T22:17:46.908Z,22.00
2018-08-10T22:20:15.082Z,22.10
2018-08-10T22:22:42.996Z,22.10
2018-08-10T22:25:10.973Z,22.10
2018-08-10T22:27:38.932Z,22.00
2018-08-10T22:30:06.878Z,22.00
2018-08-10T22:32:34.828Z,22.00
2018-08-10T22:35:03.098Z,21.90
2018-08-10T22:37:31.031Z,21.90
2018-08-10T22:39:58.963Z,21.90
2018-08-10T22:42:26.967Z,21.90
2018-08-10T22:44:54.914Z,21.90
2018-08-10T22:47:22.880Z,21.90
2018-08-10T22:49:50.908Z,21.90
2018-08-10T22:52:18.865Z,21.90
2018-08-10T22:54:46.847Z,21.90
2018-08-10T22:57:14.810Z,21.90
2018-08-10T22:59:42.822Z,21.90
2018-08-10T23:02:10.755Z,21.90
2018-08-10T23:04:38.753Z,21.80
2018-08-10T23:07:06.752Z,21.80
2018-08-10T23:09:34.708Z,21.70
2018-08-10T23:12:02.699Z,21.60
2018-08-10T23:14:30.700Z,21.60
2018-08-10T23:16:58.653Z,21.70
2018-08-10T23:19:26.608Z,21.80
2018-08-10T23:21:54.550Z,21.80
2018-08-10T23:24:22.529Z,21.80
2018-08-10T23:26:50.471Z,21.80
2018-08-10T23:29:18.461Z,21.80
2018-08-10T23:31:46.419Z,21.90
2018-08-10T23:34:14.371Z,21.80
2018-08-10T23:36:42.414Z,21.80
2018-08-10T23:39:12.030Z,21.80
2018-08-10T23:41:40.355Z,21.90
2018-08-10T23:44:08.446Z,21.90
2018-08-10T23:46:36.424Z,21.70
2018-08-10T23:49:04.600Z,21.70
2018-08-10T23:51:33.032Z,21.70
2018-08-10T23:54:01.378Z,21.70
2018-08-10T23:56:29.320Z,21.80
2018-08-10T23:58:57.508Z,21.90
